sensor_id;sensor_type;location;lat;lon;timestamp;P1;durP1;ratioP1;P2;durP2;ratioP2
47335;SDS011;33068;51.990;5.926;2023-02-18T00:01:51;73.22;;;28.92;;
47335;SDS011;33068;51.990;5.926;2023-02-18T00:04:18;79.05;;;31.55;;
47335;SDS011;33068;51.990;5.926;2023-02-18T00:06:45;81.22;;;30.35;;
47335;SDS011;33068;51.990;5.926;2023-02-18T00:09:16;86.38;;;31.17;;
47335;SDS011;33068;51.990;5.926;2023-02-18T00:11:43;80.28;;;31.70;;
47335;SDS011;33068;51.990;5.926;2023-02-18T00:14:13;93.47;;;30.70;;
47335;SDS011;33068;51.990;5.926;2023-02-18T00:16:45;92.82;;;31.45;;
47335;SDS011;33068;51.990;5.926;2023-02-18T00:19:14;96.75;;;31.52;;
47335;SDS011;33068;51.990;5.926;2023-02-18T00:21:42;99.53;;;32.30;;
47335;SDS011;33068;51.990;5.926;2023-02-18T00:24:11;103.93;;;32.88;;
47335;SDS011;33068;51.990;5.926;2023-02-18T00:26:40;108.55;;;32.65;;
47335;SDS011;33068;51.990;5.926;2023-02-18T00:29:08;108.93;;;33.55;;
47335;SDS011;33068;51.990;5.926;2023-02-18T00:31:35;113.03;;;33.13;;
47335;SDS011;33068;51.990;5.926;2023-02-18T00:34:06;100.00;;;31.23;;
47335;SDS011;33068;51.990;5.926;2023-02-18T00:36:33;105.82;;;32.05;;
47335;SDS011;33068;51.990;5.926;2023-02-18T00:39:02;93.70;;;30.48;;
47335;SDS011;33068;51.990;5.926;2023-02-18T00:41:31;99.60;;;32.03;;
47335;SDS011;33068;51.990;5.926;2023-02-18T00:43:59;103.47;;;32.47;;
47335;SDS011;33068;51.990;5.926;2023-02-18T00:46:27;106.20;;;32.70;;
47335;SDS011;33068;51.990;5.926;2023-02-18T00:48:54;110.15;;;32.53;;
47335;SDS011;33068;51.990;5.926;2023-02-18T00:51:26;111.25;;;32.88;;
47335;SDS011;33068;51.990;5.926;2023-02-18T00:53:54;106.85;;;32.47;;
47335;SDS011;33068;51.990;5.926;2023-02-18T00:56:21;100.63;;;32.38;;
47335;SDS011;33068;51.990;5.926;2023-02-18T00:58:48;119.25;;;32.30;;
47335;SDS011;33068;51.990;5.926;2023-02-18T01:01:16;104.00;;;32.67;;
47335;SDS011;33068;51.990;5.926;2023-02-18T01:03:44;102.82;;;32.47;;
47335;SDS011;33068;51.990;5.926;2023-02-18T01:06:13;102.38;;;31.88;;
47335;SDS011;33068;51.990;5.926;2023-02-18T01:08:42;102.57;;;32.88;;
47335;SDS011;33068;51.990;5.926;2023-02-18T01:11:11;90.15;;;30.80;;
47335;SDS011;33068;51.990;5.926;2023-02-18T01:13:39;95.07;;;30.48;;
47335;SDS011;33068;51.990;5.926;2023-02-18T01:16:09;93.75;;;30.02;;
47335;SDS011;33068;51.990;5.926;2023-02-18T01:18:37;85.30;;;30.08;;
47335;SDS011;33068;51.990;5.926;2023-02-18T01:21:05;99.72;;;30.25;;
47335;SDS011;33068;51.990;5.926;2023-02-18T01:23:34;82.75;;;28.85;;
47335;SDS011;33068;51.990;5.926;2023-02-18T01:26:04;83.00;;;27.92;;
47335;SDS011;33068;51.990;5.926;2023-02-18T01:28:36;87.05;;;28.40;;
47335;SDS011;33068;51.990;5.926;2023-02-18T01:31:07;81.25;;;27.20;;
47335;SDS011;33068;51.990;5.926;2023-02-18T01:33:36;79.80;;;25.65;;
47335;SDS011;33068;51.990;5.926;2023-02-18T01:36:04;65.28;;;26.38;;
47335;SDS011;33068;51.990;5.926;2023-02-18T01:38:34;73.72;;;26.33;;
47335;SDS011;33068;51.990;5.926;2023-02-18T01:41:06;83.55;;;27.63;;
47335;SDS011;33068;51.990;5.926;2023-02-18T01:43:37;76.70;;;27.15;;
47335;SDS011;33068;51.990;5.926;2023-02-18T01:46:12;83.25;;;27.52;;
47335;SDS011;33068;51.990;5.926;2023-02-18T01:48:48;77.00;;;26.65;;
47335;SDS011;33068;51.990;5.926;2023-02-18T01:51:17;81.60;;;28.10;;
47335;SDS011;33068;51.990;5.926;2023-02-18T01:53:49;77.07;;;28.20;;
47335;SDS011;33068;51.990;5.926;2023-02-18T01:56:23;77.90;;;27.20;;
47335;SDS011;33068;51.990;5.926;2023-02-18T01:58:53;79.38;;;28.35;;
47335;SDS011;33068;51.990;5.926;2023-02-18T02:01:22;72.22;;;27.40;;
47335;SDS011;33068;51.990;5.926;2023-02-18T02:03:51;80.25;;;28.17;;
47335;SDS011;33068;51.990;5.926;2023-02-18T02:06:19;73.00;;;29.05;;
47335;SDS011;33068;51.990;5.926;2023-02-18T02:08:49;87.85;;;30.00;;
47335;SDS011;33068;51.990;5.926;2023-02-18T02:11:27;85.00;;;28.30;;
47335;SDS011;33068;51.990;5.926;2023-02-18T02:14:10;81.15;;;30.00;;
47335;SDS011;33068;51.990;5.926;2023-02-18T02:16:47;95.10;;;29.13;;
47335;SDS011;33068;51.990;5.926;2023-02-18T02:19:33;94.05;;;29.95;;
47335;SDS011;33068;51.990;5.926;2023-02-18T02:25:50;102.40;;;30.25;;
47335;SDS011;33068;51.990;5.926;2023-02-18T02:29:00;105.43;;;32.97;;
47335;SDS011;33068;51.990;5.926;2023-02-18T02:34:55;119.55;;;36.90;;
47335;SDS011;33068;51.990;5.926;2023-02-18T02:37:28;133.23;;;36.17;;
47335;SDS011;33068;51.990;5.926;2023-02-18T02:40:03;126.80;;;38.95;;
47335;SDS011;33068;51.990;5.926;2023-02-18T02:42:39;126.63;;;39.78;;
47335;SDS011;33068;51.990;5.926;2023-02-18T02:45:17;132.77;;;39.53;;
47335;SDS011;33068;51.990;5.926;2023-02-18T02:47:54;136.23;;;39.60;;
47335;SDS011;33068;51.990;5.926;2023-02-18T02:50:30;141.77;;;41.28;;
47335;SDS011;33068;51.990;5.926;2023-02-18T02:53:03;149.20;;;40.92;;
47335;SDS011;33068;51.990;5.926;2023-02-18T02:55:38;145.00;;;41.80;;
47335;SDS011;33068;51.990;5.926;2023-02-18T02:58:06;139.93;;;42.15;;
47335;SDS011;33068;51.990;5.926;2023-02-18T03:00:40;130.93;;;40.50;;
47335;SDS011;33068;51.990;5.926;2023-02-18T03:03:25;134.10;;;40.55;;
47335;SDS011;33068;51.990;5.926;2023-02-18T03:09:15;146.18;;;40.45;;
47335;SDS011;33068;51.990;5.926;2023-02-18T03:11:48;154.18;;;43.03;;
47335;SDS011;33068;51.990;5.926;2023-02-18T03:14:21;150.93;;;41.83;;
47335;SDS011;33068;51.990;5.926;2023-02-18T03:16:57;159.48;;;41.08;;
47335;SDS011;33068;51.990;5.926;2023-02-18T03:19:29;169.40;;;41.63;;
47335;SDS011;33068;51.990;5.926;2023-02-18T03:22:01;163.23;;;41.65;;
47335;SDS011;33068;51.990;5.926;2023-02-18T03:24:35;165.35;;;42.13;;
47335;SDS011;33068;51.990;5.926;2023-02-18T03:27:05;156.48;;;39.80;;
47335;SDS011;33068;51.990;5.926;2023-02-18T03:29:39;139.00;;;40.22;;
47335;SDS011;33068;51.990;5.926;2023-02-18T03:32:08;158.10;;;40.58;;
47335;SDS011;33068;51.990;5.926;2023-02-18T03:34:39;141.43;;;37.17;;
47335;SDS011;33068;51.990;5.926;2023-02-18T03:37:09;118.22;;;35.75;;
47335;SDS011;33068;51.990;5.926;2023-02-18T03:39:40;152.60;;;35.45;;
47335;SDS011;33068;51.990;5.926;2023-02-18T03:42:11;117.18;;;33.88;;
47335;SDS011;33068;51.990;5.926;2023-02-18T03:44:38;134.23;;;34.08;;
47335;SDS011;33068;51.990;5.926;2023-02-18T03:47:06;122.05;;;32.47;;
47335;SDS011;33068;51.990;5.926;2023-02-18T03:49:33;110.03;;;31.25;;
47335;SDS011;33068;51.990;5.926;2023-02-18T03:52:01;120.75;;;30.77;;
47335;SDS011;33068;51.990;5.926;2023-02-18T03:54:30;103.35;;;28.92;;
47335;SDS011;33068;51.990;5.926;2023-02-18T03:57:01;111.65;;;29.42;;
47335;SDS011;33068;51.990;5.926;2023-02-18T03:59:29;98.50;;;27.00;;
47335;SDS011;33068;51.990;5.926;2023-02-18T04:01:56;88.25;;;26.17;;
47335;SDS011;33068;51.990;5.926;2023-02-18T04:04:23;67.53;;;21.48;;
47335;SDS011;33068;51.990;5.926;2023-02-18T04:06:53;76.47;;;23.77;;
47335;SDS011;33068;51.990;5.926;2023-02-18T04:09:22;62.35;;;20.17;;
47335;SDS011;33068;51.990;5.926;2023-02-18T04:11:50;76.97;;;20.85;;
47335;SDS011;33068;51.990;5.926;2023-02-18T04:14:19;61.03;;;19.17;;
47335;SDS011;33068;51.990;5.926;2023-02-18T04:16:46;67.40;;;19.73;;
47335;SDS011;33068;51.990;5.926;2023-02-18T04:19:13;62.08;;;19.15;;
47335;SDS011;33068;51.990;5.926;2023-02-18T04:21:40;67.60;;;18.95;;
47335;SDS011;33068;51.990;5.926;2023-02-18T04:24:08;61.13;;;19.33;;
47335;SDS011;33068;51.990;5.926;2023-02-18T04:26:35;64.95;;;19.58;;
47335;SDS011;33068;51.990;5.926;2023-02-18T04:29:02;68.22;;;20.55;;
47335;SDS011;33068;51.990;5.926;2023-02-18T04:31:31;65.03;;;19.80;;
47335;SDS011;33068;51.990;5.926;2023-02-18T04:33:58;62.78;;;19.38;;
47335;SDS011;33068;51.990;5.926;2023-02-18T04:36:25;65.63;;;18.75;;
47335;SDS011;33068;51.990;5.926;2023-02-18T04:38:53;58.35;;;18.73;;
47335;SDS011;33068;51.990;5.926;2023-02-18T04:41:20;57.47;;;17.92;;
47335;SDS011;33068;51.990;5.926;2023-02-18T04:43:47;59.13;;;17.08;;
47335;SDS011;33068;51.990;5.926;2023-02-18T04:46:15;58.60;;;17.13;;
47335;SDS011;33068;51.990;5.926;2023-02-18T04:48:43;50.85;;;15.15;;
47335;SDS011;33068;51.990;5.926;2023-02-18T04:51:10;47.22;;;14.27;;
47335;SDS011;33068;51.990;5.926;2023-02-18T04:53:38;42.60;;;13.65;;
47335;SDS011;33068;51.990;5.926;2023-02-18T04:56:05;46.85;;;12.60;;
47335;SDS011;33068;51.990;5.926;2023-02-18T04:58:32;40.00;;;11.60;;
47335;SDS011;33068;51.990;5.926;2023-02-18T05:01:00;36.20;;;11.55;;
47335;SDS011;33068;51.990;5.926;2023-02-18T05:03:27;35.15;;;11.23;;
47335;SDS011;33068;51.990;5.926;2023-02-18T05:05:57;38.83;;;11.60;;
47335;SDS011;33068;51.990;5.926;2023-02-18T05:08:33;34.17;;;11.00;;
47335;SDS011;33068;51.990;5.926;2023-02-18T05:11:04;32.53;;;10.57;;
47335;SDS011;33068;51.990;5.926;2023-02-18T05:13:32;28.10;;;9.20;;
47335;SDS011;33068;51.990;5.926;2023-02-18T05:15:59;31.95;;;10.50;;
47335;SDS011;33068;51.990;5.926;2023-02-18T05:18:32;31.42;;;10.63;;
47335;SDS011;33068;51.990;5.926;2023-02-18T05:21:05;32.63;;;10.45;;
47335;SDS011;33068;51.990;5.926;2023-02-18T05:23:33;33.63;;;10.63;;
47335;SDS011;33068;51.990;5.926;2023-02-18T05:26:00;31.48;;;10.90;;
47335;SDS011;33068;51.990;5.926;2023-02-18T05:28:27;30.60;;;10.75;;
47335;SDS011;33068;51.990;5.926;2023-02-18T05:30:54;24.67;;;10.05;;
47335;SDS011;33068;51.990;5.926;2023-02-18T05:33:23;26.08;;;9.32;;
47335;SDS011;33068;51.990;5.926;2023-02-18T05:35:50;22.83;;;8.70;;
47335;SDS011;33068;51.990;5.926;2023-02-18T05:38:20;27.45;;;9.02;;
47335;SDS011;33068;51.990;5.926;2023-02-18T05:40:47;22.75;;;8.88;;
47335;SDS011;33068;51.990;5.926;2023-02-18T05:43:15;21.10;;;8.32;;
47335;SDS011;33068;51.990;5.926;2023-02-18T05:45:43;25.95;;;8.30;;
47335;SDS011;33068;51.990;5.926;2023-02-18T05:48:12;25.23;;;9.02;;
47335;SDS011;33068;51.990;5.926;2023-02-18T05:50:39;18.17;;;7.43;;
47335;SDS011;33068;51.990;5.926;2023-02-18T05:53:07;14.57;;;6.90;;
47335;SDS011;33068;51.990;5.926;2023-02-18T05:55:37;18.63;;;7.53;;
47335;SDS011;33068;51.990;5.926;2023-02-18T05:58:05;17.15;;;6.80;;
47335;SDS011;33068;51.990;5.926;2023-02-18T06:00:33;16.08;;;7.97;;
47335;SDS011;33068;51.990;5.926;2023-02-18T06:03:00;17.23;;;7.20;;
47335;SDS011;33068;51.990;5.926;2023-02-18T06:05:30;16.67;;;6.50;;
47335;SDS011;33068;51.990;5.926;2023-02-18T06:07:57;11.75;;;5.70;;
47335;SDS011;33068;51.990;5.926;2023-02-18T06:10:24;10.93;;;6.07;;
47335;SDS011;33068;51.990;5.926;2023-02-18T06:12:53;12.73;;;5.95;;
47335;SDS011;33068;51.990;5.926;2023-02-18T06:15:27;15.13;;;5.45;;
47335;SDS011;33068;51.990;5.926;2023-02-18T06:17:54;11.90;;;5.00;;
47335;SDS011;33068;51.990;5.926;2023-02-18T06:20:22;11.30;;;5.20;;
47335;SDS011;33068;51.990;5.926;2023-02-18T06:22:49;13.13;;;5.82;;
47335;SDS011;33068;51.990;5.926;2023-02-18T06:25:17;12.57;;;6.30;;
47335;SDS011;33068;51.990;5.926;2023-02-18T06:27:44;14.40;;;8.05;;
47335;SDS011;33068;51.990;5.926;2023-02-18T06:30:13;21.27;;;9.05;;
47335;SDS011;33068;51.990;5.926;2023-02-18T06:32:40;18.85;;;9.43;;
47335;SDS011;33068;51.990;5.926;2023-02-18T06:35:09;18.65;;;9.68;;
47335;SDS011;33068;51.990;5.926;2023-02-18T06:37:37;18.52;;;9.77;;
47335;SDS011;33068;51.990;5.926;2023-02-18T06:40:05;22.88;;;8.95;;
47335;SDS011;33068;51.990;5.926;2023-02-18T06:42:33;17.08;;;8.95;;
47335;SDS011;33068;51.990;5.926;2023-02-18T06:45:03;18.30;;;9.13;;
47335;SDS011;33068;51.990;5.926;2023-02-18T06:47:32;17.83;;;8.98;;
47335;SDS011;33068;51.990;5.926;2023-02-18T06:50:00;16.73;;;8.63;;
47335;SDS011;33068;51.990;5.926;2023-02-18T06:52:29;20.92;;;9.65;;
47335;SDS011;33068;51.990;5.926;2023-02-18T06:55:03;24.55;;;9.63;;
47335;SDS011;33068;51.990;5.926;2023-02-18T06:57:34;18.45;;;8.88;;
47335;SDS011;33068;51.990;5.926;2023-02-18T07:00:04;27.65;;;9.95;;
47335;SDS011;33068;51.990;5.926;2023-02-18T07:02:41;20.05;;;8.00;;
47335;SDS011;33068;51.990;5.926;2023-02-18T07:05:09;19.90;;;7.63;;
47335;SDS011;33068;51.990;5.926;2023-02-18T07:07:39;14.10;;;6.35;;
47335;SDS011;33068;51.990;5.926;2023-02-18T07:10:08;14.18;;;6.05;;
47335;SDS011;33068;51.990;5.926;2023-02-18T07:12:36;15.20;;;6.32;;
47335;SDS011;33068;51.990;5.926;2023-02-18T07:15:03;16.05;;;6.60;;
47335;SDS011;33068;51.990;5.926;2023-02-18T07:17:31;19.38;;;7.53;;
47335;SDS011;33068;51.990;5.926;2023-02-18T07:19:59;19.60;;;7.25;;
47335;SDS011;33068;51.990;5.926;2023-02-18T07:22:29;25.17;;;8.27;;
47335;SDS011;33068;51.990;5.926;2023-02-18T07:24:56;16.17;;;8.25;;
47335;SDS011;33068;51.990;5.926;2023-02-18T07:27:24;21.83;;;8.98;;
47335;SDS011;33068;51.990;5.926;2023-02-18T07:29:51;21.08;;;9.68;;
47335;SDS011;33068;51.990;5.926;2023-02-18T07:32:19;21.63;;;9.85;;
47335;SDS011;33068;51.990;5.926;2023-02-18T07:34:46;22.15;;;10.30;;
47335;SDS011;33068;51.990;5.926;2023-02-18T07:37:15;24.17;;;10.63;;
47335;SDS011;33068;51.990;5.926;2023-02-18T07:39:42;20.23;;;10.93;;
47335;SDS011;33068;51.990;5.926;2023-02-18T07:42:11;26.60;;;9.73;;
47335;SDS011;33068;51.990;5.926;2023-02-18T07:44:46;19.15;;;9.63;;
47335;SDS011;33068;51.990;5.926;2023-02-18T07:47:13;20.30;;;9.90;;
47335;SDS011;33068;51.990;5.926;2023-02-18T07:49:44;20.05;;;9.63;;
47335;SDS011;33068;51.990;5.926;2023-02-18T07:52:11;18.15;;;9.82;;
47335;SDS011;33068;51.990;5.926;2023-02-18T07:54:40;21.42;;;9.82;;
47335;SDS011;33068;51.990;5.926;2023-02-18T07:57:13;20.95;;;9.20;;
47335;SDS011;33068;51.990;5.926;2023-02-18T07:59:40;19.77;;;9.88;;
47335;SDS011;33068;51.990;5.926;2023-02-18T08:02:09;21.63;;;10.05;;
47335;SDS011;33068;51.990;5.926;2023-02-18T08:04:42;29.30;;;10.30;;
47335;SDS011;33068;51.990;5.926;2023-02-18T08:07:11;24.40;;;10.60;;
47335;SDS011;33068;51.990;5.926;2023-02-18T08:09:41;27.55;;;10.70;;
47335;SDS011;33068;51.990;5.926;2023-02-18T08:12:08;30.35;;;9.63;;
47335;SDS011;33068;51.990;5.926;2023-02-18T08:14:36;25.20;;;9.73;;
47335;SDS011;33068;51.990;5.926;2023-02-18T08:17:03;18.27;;;7.90;;
47335;SDS011;33068;51.990;5.926;2023-02-18T08:19:30;20.50;;;7.88;;
47335;SDS011;33068;51.990;5.926;2023-02-18T08:21:59;22.77;;;7.38;;
47335;SDS011;33068;51.990;5.926;2023-02-18T08:24:27;21.50;;;5.13;;
47335;SDS011;33068;51.990;5.926;2023-02-18T08:26:55;16.92;;;5.45;;
47335;SDS011;33068;51.990;5.926;2023-02-18T08:29:22;19.60;;;5.00;;
47335;SDS011;33068;51.990;5.926;2023-02-18T08:31:50;18.27;;;4.55;;
47335;SDS011;33068;51.990;5.926;2023-02-18T08:34:19;16.65;;;3.90;;
47335;SDS011;33068;51.990;5.926;2023-02-18T08:36:46;15.68;;;3.95;;
47335;SDS011;33068;51.990;5.926;2023-02-18T08:39:13;19.77;;;5.03;;
47335;SDS011;33068;51.990;5.926;2023-02-18T08:41:40;19.40;;;5.30;;
47335;SDS011;33068;51.990;5.926;2023-02-18T08:44:09;20.05;;;4.88;;
47335;SDS011;33068;51.990;5.926;2023-02-18T08:46:36;18.08;;;5.85;;
47335;SDS011;33068;51.990;5.926;2023-02-18T08:49:03;14.95;;;4.57;;
47335;SDS011;33068;51.990;5.926;2023-02-18T08:51:30;18.48;;;5.68;;
47335;SDS011;33068;51.990;5.926;2023-02-18T08:53:58;17.67;;;4.60;;
47335;SDS011;33068;51.990;5.926;2023-02-18T08:56:25;19.05;;;4.03;;
47335;SDS011;33068;51.990;5.926;2023-02-18T08:58:52;18.25;;;4.30;;
47335;SDS011;33068;51.990;5.926;2023-02-18T09:01:21;15.82;;;3.75;;
47335;SDS011;33068;51.990;5.926;2023-02-18T09:03:51;15.95;;;3.47;;
47335;SDS011;33068;51.990;5.926;2023-02-18T09:06:18;19.77;;;4.15;;
47335;SDS011;33068;51.990;5.926;2023-02-18T09:08:45;17.33;;;4.38;;
47335;SDS011;33068;51.990;5.926;2023-02-18T09:11:16;15.70;;;4.00;;
47335;SDS011;33068;51.990;5.926;2023-02-18T09:13:48;14.38;;;3.80;;
47335;SDS011;33068;51.990;5.926;2023-02-18T09:16:15;20.75;;;3.65;;
47335;SDS011;33068;51.990;5.926;2023-02-18T09:18:45;16.38;;;3.03;;
47335;SDS011;33068;51.990;5.926;2023-02-18T09:21:14;15.25;;;2.42;;
47335;SDS011;33068;51.990;5.926;2023-02-18T09:23:45;16.05;;;3.13;;
47335;SDS011;33068;51.990;5.926;2023-02-18T09:26:13;19.77;;;2.75;;
47335;SDS011;33068;51.990;5.926;2023-02-18T09:28:41;15.30;;;2.42;;
47335;SDS011;33068;51.990;5.926;2023-02-18T09:31:11;15.38;;;2.42;;
47335;SDS011;33068;51.990;5.926;2023-02-18T09:33:41;8.63;;;2.25;;
47335;SDS011;33068;51.990;5.926;2023-02-18T09:36:12;16.08;;;2.95;;
47335;SDS011;33068;51.990;5.926;2023-02-18T09:38:39;18.55;;;4.18;;
47335;SDS011;33068;51.990;5.926;2023-02-18T09:41:07;21.70;;;4.25;;
47335;SDS011;33068;51.990;5.926;2023-02-18T09:43:40;16.55;;;5.07;;
47335;SDS011;33068;51.990;5.926;2023-02-18T09:46:21;25.52;;;7.25;;
47335;SDS011;33068;51.990;5.926;2023-02-18T09:48:51;30.25;;;7.03;;
47335;SDS011;33068;51.990;5.926;2023-02-18T09:51:20;32.78;;;8.65;;
47335;SDS011;33068;51.990;5.926;2023-02-18T09:53:47;29.15;;;7.85;;
47335;SDS011;33068;51.990;5.926;2023-02-18T09:56:16;20.60;;;5.07;;
47335;SDS011;33068;51.990;5.926;2023-02-18T09:58:51;27.33;;;7.10;;
47335;SDS011;33068;51.990;5.926;2023-02-18T10:01:20;32.75;;;7.82;;
47335;SDS011;33068;51.990;5.926;2023-02-18T10:03:54;33.78;;;9.73;;
47335;SDS011;33068;51.990;5.926;2023-02-18T10:06:28;22.90;;;5.90;;
47335;SDS011;33068;51.990;5.926;2023-02-18T10:09:00;23.00;;;6.88;;
47335;SDS011;33068;51.990;5.926;2023-02-18T10:11:31;31.17;;;6.38;;
47335;SDS011;33068;51.990;5.926;2023-02-18T10:14:00;25.15;;;7.55;;
47335;SDS011;33068;51.990;5.926;2023-02-18T10:16:34;28.55;;;8.25;;
47335;SDS011;33068;51.990;5.926;2023-02-18T10:19:03;47.40;;;10.90;;
47335;SDS011;33068;51.990;5.926;2023-02-18T10:21:41;20.27;;;4.05;;
47335;SDS011;33068;51.990;5.926;2023-02-18T10:24:12;27.75;;;6.65;;
47335;SDS011;33068;51.990;5.926;2023-02-18T10:26:47;18.00;;;5.00;;
47335;SDS011;33068;51.990;5.926;2023-02-18T10:29:18;30.85;;;4.55;;
47335;SDS011;33068;51.990;5.926;2023-02-18T10:31:47;26.95;;;5.75;;
47335;SDS011;33068;51.990;5.926;2023-02-18T10:34:21;27.58;;;4.70;;
47335;SDS011;33068;51.990;5.926;2023-02-18T10:36:59;14.38;;;3.85;;
47335;SDS011;33068;51.990;5.926;2023-02-18T10:39:35;16.17;;;3.70;;
47335;SDS011;33068;51.990;5.926;2023-02-18T10:42:14;18.33;;;4.05;;
47335;SDS011;33068;51.990;5.926;2023-02-18T10:44:54;18.65;;;4.03;;
47335;SDS011;33068;51.990;5.926;2023-02-18T10:47:33;21.02;;;3.28;;
47335;SDS011;33068;51.990;5.926;2023-02-18T10:50:08;16.88;;;2.45;;
47335;SDS011;33068;51.990;5.926;2023-02-18T10:52:41;12.20;;;3.03;;
47335;SDS011;33068;51.990;5.926;2023-02-18T10:55:11;14.18;;;2.95;;
47335;SDS011;33068;51.990;5.926;2023-02-18T10:57:46;17.27;;;3.05;;
47335;SDS011;33068;51.990;5.926;2023-02-18T11:00:15;18.00;;;3.15;;
47335;SDS011;33068;51.990;5.926;2023-02-18T11:02:44;13.45;;;3.53;;
47335;SDS011;33068;51.990;5.926;2023-02-18T11:05:17;18.42;;;4.32;;
47335;SDS011;33068;51.990;5.926;2023-02-18T11:07:52;20.20;;;3.97;;
47335;SDS011;33068;51.990;5.926;2023-02-18T11:10:22;27.85;;;4.38;;
47335;SDS011;33068;51.990;5.926;2023-02-18T11:12:54;24.75;;;4.78;;
47335;SDS011;33068;51.990;5.926;2023-02-18T11:15:23;19.25;;;5.10;;
47335;SDS011;33068;51.990;5.926;2023-02-18T11:17:52;19.20;;;5.00;;
47335;SDS011;33068;51.990;5.926;2023-02-18T11:20:23;19.98;;;4.18;;
47335;SDS011;33068;51.990;5.926;2023-02-18T11:23:11;24.92;;;4.95;;
47335;SDS011;33068;51.990;5.926;2023-02-18T11:25:55;20.80;;;4.35;;
47335;SDS011;33068;51.990;5.926;2023-02-18T11:28:27;21.27;;;4.13;;
47335;SDS011;33068;51.990;5.926;2023-02-18T11:30:59;27.67;;;4.95;;
47335;SDS011;33068;51.990;5.926;2023-02-18T11:33:31;22.75;;;5.18;;
47335;SDS011;33068;51.990;5.926;2023-02-18T11:36:02;25.35;;;5.13;;
47335;SDS011;33068;51.990;5.926;2023-02-18T11:38:42;13.88;;;4.78;;
47335;SDS011;33068;51.990;5.926;2023-02-18T11:41:13;26.08;;;5.28;;
47335;SDS011;33068;51.990;5.926;2023-02-18T11:43:44;23.88;;;5.85;;
47335;SDS011;33068;51.990;5.926;2023-02-18T11:46:16;15.00;;;4.55;;
47335;SDS011;33068;51.990;5.926;2023-02-18T11:48:47;22.67;;;6.80;;
47335;SDS011;33068;51.990;5.926;2023-02-18T11:51:16;22.67;;;5.97;;
47335;SDS011;33068;51.990;5.926;2023-02-18T11:56:53;27.33;;;5.55;;
47335;SDS011;33068;51.990;5.926;2023-02-18T11:59:21;29.05;;;5.38;;
47335;SDS011;33068;51.990;5.926;2023-02-18T12:01:49;20.35;;;5.35;;
47335;SDS011;33068;51.990;5.926;2023-02-18T12:04:20;18.30;;;5.95;;
47335;SDS011;33068;51.990;5.926;2023-02-18T12:06:53;28.02;;;6.43;;
47335;SDS011;33068;51.990;5.926;2023-02-18T12:09:34;25.75;;;6.93;;
47335;SDS011;33068;51.990;5.926;2023-02-18T12:12:05;31.23;;;9.88;;
47335;SDS011;33068;51.990;5.926;2023-02-18T12:14:39;30.70;;;10.52;;
47335;SDS011;33068;51.990;5.926;2023-02-18T12:20:18;24.73;;;6.38;;
47335;SDS011;33068;51.990;5.926;2023-02-18T12:23:00;29.75;;;6.85;;
47335;SDS011;33068;51.990;5.926;2023-02-18T12:25:37;24.33;;;8.07;;
47335;SDS011;33068;51.990;5.926;2023-02-18T12:28:23;29.75;;;7.72;;
47335;SDS011;33068;51.990;5.926;2023-02-18T12:34:00;23.98;;;8.68;;
47335;SDS011;33068;51.990;5.926;2023-02-18T12:36:49;29.15;;;8.63;;
47335;SDS011;33068;51.990;5.926;2023-02-18T12:39:30;21.65;;;8.40;;
47335;SDS011;33068;51.990;5.926;2023-02-18T12:42:12;19.77;;;7.97;;
47335;SDS011;33068;51.990;5.926;2023-02-18T12:45:04;25.10;;;7.60;;
47335;SDS011;33068;51.990;5.926;2023-02-18T12:51:01;26.83;;;7.75;;
47335;SDS011;33068;51.990;5.926;2023-02-18T12:54:09;26.40;;;8.27;;
47335;SDS011;33068;51.990;5.926;2023-02-18T12:56:58;32.17;;;11.52;;
47335;SDS011;33068;51.990;5.926;2023-02-18T12:59:45;28.77;;;10.40;;
47335;SDS011;33068;51.990;5.926;2023-02-18T13:02:45;19.73;;;6.95;;
47335;SDS011;33068;51.990;5.926;2023-02-18T13:05:37;23.63;;;7.50;;
47335;SDS011;33068;51.990;5.926;2023-02-18T13:08:20;27.35;;;7.45;;
47335;SDS011;33068;51.990;5.926;2023-02-18T13:11:13;19.65;;;6.72;;
47335;SDS011;33068;51.990;5.926;2023-02-18T13:13:51;26.27;;;7.32;;
47335;SDS011;33068;51.990;5.926;2023-02-18T13:16:25;22.15;;;5.97;;
47335;SDS011;33068;51.990;5.926;2023-02-18T13:18:58;29.67;;;8.88;;
47335;SDS011;33068;51.990;5.926;2023-02-18T13:21:33;20.52;;;6.18;;
47335;SDS011;33068;51.990;5.926;2023-02-18T13:24:05;26.63;;;6.72;;
47335;SDS011;33068;51.990;5.926;2023-02-18T13:26:37;15.63;;;7.40;;
47335;SDS011;33068;51.990;5.926;2023-02-18T13:29:12;21.33;;;6.65;;
47335;SDS011;33068;51.990;5.926;2023-02-18T13:31:50;20.15;;;7.05;;
47335;SDS011;33068;51.990;5.926;2023-02-18T13:34:26;22.17;;;5.75;;
47335;SDS011;33068;51.990;5.926;2023-02-18T13:37:10;22.63;;;6.10;;
47335;SDS011;33068;51.990;5.926;2023-02-18T13:39:48;20.67;;;5.35;;
47335;SDS011;33068;51.990;5.926;2023-02-18T13:42:34;23.20;;;6.30;;
47335;SDS011;33068;51.990;5.926;2023-02-18T13:45:22;21.13;;;6.30;;
47335;SDS011;33068;51.990;5.926;2023-02-18T13:47:56;23.42;;;6.30;;
47335;SDS011;33068;51.990;5.926;2023-02-18T13:50:28;21.70;;;5.82;;
47335;SDS011;33068;51.990;5.926;2023-02-18T13:53:19;24.42;;;5.70;;
47335;SDS011;33068;51.990;5.926;2023-02-18T13:55:53;24.98;;;6.97;;
47335;SDS011;33068;51.990;5.926;2023-02-18T13:58:30;15.63;;;6.03;;
47335;SDS011;33068;51.990;5.926;2023-02-18T14:01:04;21.00;;;6.60;;
47335;SDS011;33068;51.990;5.926;2023-02-18T14:03:59;24.10;;;7.35;;
47335;SDS011;33068;51.990;5.926;2023-02-18T14:06:30;25.77;;;6.60;;
47335;SDS011;33068;51.990;5.926;2023-02-18T14:12:14;20.80;;;6.30;;
47335;SDS011;33068;51.990;5.926;2023-02-18T14:14:49;23.55;;;7.63;;
47335;SDS011;33068;51.990;5.926;2023-02-18T14:20:31;22.70;;;7.05;;
47335;SDS011;33068;51.990;5.926;2023-02-18T14:23:12;26.02;;;7.50;;
47335;SDS011;33068;51.990;5.926;2023-02-18T14:26:22;25.45;;;7.18;;
47335;SDS011;33068;51.990;5.926;2023-02-18T14:28:54;39.33;;;7.93;;
47335;SDS011;33068;51.990;5.926;2023-02-18T14:31:34;21.15;;;7.15;;
47335;SDS011;33068;51.990;5.926;2023-02-18T14:34:17;17.35;;;5.97;;
47335;SDS011;33068;51.990;5.926;2023-02-18T14:37:12;25.52;;;7.57;;
47335;SDS011;33068;51.990;5.926;2023-02-18T14:40:21;22.10;;;6.32;;
47335;SDS011;33068;51.990;5.926;2023-02-18T14:42:59;23.00;;;6.60;;
47335;SDS011;33068;51.990;5.926;2023-02-18T14:45:42;20.48;;;7.22;;
47335;SDS011;33068;51.990;5.926;2023-02-18T14:48:42;26.10;;;7.45;;
47335;SDS011;33068;51.990;5.926;2023-02-18T14:51:20;28.70;;;7.35;;
47335;SDS011;33068;51.990;5.926;2023-02-18T14:53:49;17.52;;;7.50;;
47335;SDS011;33068;51.990;5.926;2023-02-18T14:56:19;28.52;;;8.30;;
47335;SDS011;33068;51.990;5.926;2023-02-18T14:58:48;24.38;;;7.65;;
47335;SDS011;33068;51.990;5.926;2023-02-18T15:01:19;30.77;;;8.45;;
47335;SDS011;33068;51.990;5.926;2023-02-18T15:03:50;18.17;;;7.15;;
47335;SDS011;33068;51.990;5.926;2023-02-18T15:06:24;24.85;;;8.07;;
47335;SDS011;33068;51.990;5.926;2023-02-18T15:08:54;18.23;;;7.38;;
47335;SDS011;33068;51.990;5.926;2023-02-18T15:11:24;22.45;;;7.55;;
47335;SDS011;33068;51.990;5.926;2023-02-18T15:13:58;24.48;;;7.07;;
47335;SDS011;33068;51.990;5.926;2023-02-18T15:16:28;27.13;;;7.05;;
47335;SDS011;33068;51.990;5.926;2023-02-18T15:18:57;23.58;;;7.97;;
47335;SDS011;33068;51.990;5.926;2023-02-18T15:21:27;21.98;;;7.53;;
47335;SDS011;33068;51.990;5.926;2023-02-18T15:23:57;38.28;;;14.15;;
47335;SDS011;33068;51.990;5.926;2023-02-18T15:26:32;34.88;;;9.20;;